Time;durP1;ratioP1;P1;durP2;ratioP2;P2;SDS_P1;SDS_P2;PMS_P1;PMS_P2;Temp;Humidity;BMP_temperature;BMP_pressure;BME280_temperature;BME280_humidity;BME280_pressure;Samples;Min_cycle;Max_cycle;Signal;HPM_P1;HPM_P2
2023/01/19 00:01:28;;;;;;;;;;;19.30;51.60;;;;;;6318520;28;19904;-66
2023/01/19 00:04:29;;;;;;;;;;;19.30;51.60;;;;;;6318699;28;19995;-66
2023/01/19 00:07:30;;;;;;;;;;;19.40;51.60;;;;;;6318849;28;19904;-66
2023/01/19 00:10:30;;;;;;;;;;;19.30;51.60;;;;;;6318480;28;19915;-66
2023/01/19 00:13:31;;;;;;;;;;;19.30;51.60;;;;;;6318613;28;19931;-66
2023/01/19 00:16:32;;;;;;;;;;;19.30;51.60;;;;;;6317989;28;19908;-66
2023/01/19 00:19:32;;;;;;;;;;;19.40;51.70;;;;;;6318554;28;20268;-66
2023/01/19 00:22:33;;;;;;;;;;;19.40;51.70;;;;;;6318401;28;19904;-66
2023/01/19 00:25:34;;;;;;;;;;;19.40;51.70;;;;;;6317301;28;19931;-66
2023/01/19 00:28:35;;;;;;;;;;;19.30;51.60;;;;;;6317886;28;19981;-66
2023/01/19 00:31:35;;;;;;;;;;;19.30;51.70;;;;;;6318486;28;19908;-66
2023/01/19 00:34:38;;;;;;;;;;;19.30;51.70;;;;;;6317567;28;20029;-66
2023/01/19 00:37:38;;;;;;;;;;;19.30;51.70;;;;;;6318315;28;20424;-66
2023/01/19 00:40:39;;;;;;;;;;;19.30;51.70;;;;;;6318203;28;19904;-66
2023/01/19 00:43:40;;;;;;;;;;;19.30;51.70;;;;;;6318130;28;19912;-66
2023/01/19 00:46:40;;;;;;;;;;;19.30;51.60;;;;;;6317647;28;19922;-66
2023/01/19 00:49:41;;;;;;;;;;;19.30;51.70;;;;;;6320387;28;19915;-66
2023/01/19 00:52:42;;;;;;;;;;;19.30;51.70;;;;;;6323013;28;19904;-66
2023/01/19 00:55:42;;;;;;;;;;;19.30;51.70;;;;;;6323153;28;19912;-66
2023/01/19 00:58:44;;;;;;;;;;;19.30;51.70;;;;;;6322994;28;20288;-66
2023/01/19 01:01:44;;;;;;;;;;;19.30;51.60;;;;;;6323058;28;20002;-66
2023/01/19 01:04:45;;;;;;;;;;;19.30;51.70;;;;;;6322484;28;19912;-66
2023/01/19 01:07:47;;;;;;;;;;;19.30;51.70;;;;;;6323001;28;19926;-66
2023/01/19 01:10:47;;;;;;;;;;;19.30;51.70;;;;;;6322471;28;19914;-66
2023/01/19 01:13:49;;;;;;;;;;;19.30;51.70;;;;;;6322853;28;20407;-66
2023/01/19 01:16:49;;;;;;;;;;;19.30;51.60;;;;;;6322683;28;19987;-66
2023/01/19 01:19:50;;;;;;;;;;;19.30;51.70;;;;;;6322868;28;19957;-66
2023/01/19 01:22:52;;;;;;;;;;;19.30;51.60;;;;;;6322439;28;19955;-66
2023/01/19 01:25:52;;;;;;;;;;;19.30;51.60;;;;;;6322364;28;20338;-66
2023/01/19 01:28:53;;;;;;;;;;;19.30;51.70;;;;;;6322368;28;19939;-66
2023/01/19 01:31:53;;;;;;;;;;;19.30;51.70;;;;;;6322393;28;19908;-66
2023/01/19 01:34:54;;;;;;;;;;;19.30;51.60;;;;;;6322236;28;19908;-66
2023/01/19 01:37:56;;;;;;;;;;;19.30;51.70;;;;;;6322193;28;19910;-66
2023/01/19 01:40:57;;;;;;;;;;;19.30;51.70;;;;;;6303777;28;19939;-66
2023/01/19 01:43:58;;;;;;;;;;;19.30;51.70;;;;;;6322013;28;20365;-66
2023/01/19 01:46:59;;;;;;;;;;;19.30;51.70;;;;;;6321958;28;19910;-66
2023/01/19 01:50:00;;;;;;;;;;;19.30;51.70;;;;;;6321973;28;19903;-66
2023/01/19 01:53:07;;;;;;;;;;;19.30;51.70;;;;;;6321980;28;19904;-66
2023/01/19 01:56:10;;;;;;;;;;;19.30;51.70;;;;;;6321262;28;19908;-66
2023/01/19 01:59:16;;;;;;;;;;;19.30;51.70;;;;;;6321091;28;19915;-66
2023/01/19 02:05:41;;;;;;;;;;;19.30;51.70;;;;;;6321803;28;19903;-66
2023/01/19 02:15:30;;;;;;;;;;;19.30;51.70;;;;;;6320715;28;19912;-66
2023/01/19 02:18:31;;;;;;;;;;;19.30;51.60;;;;;;6321651;28;19957;-66
2023/01/19 02:21:50;;;;;;;;;;;19.30;51.60;;;;;;6321135;28;19908;-66
2023/01/19 02:24:52;;;;;;;;;;;19.30;51.60;;;;;;6321097;28;20353;-66
2023/01/19 02:27:53;;;;;;;;;;;19.30;51.70;;;;;;6320744;28;19956;-66
2023/01/19 02:30:54;;;;;;;;;;;19.30;51.70;;;;;;6320747;28;19911;-66
2023/01/19 02:33:55;;;;;;;;;;;19.30;51.70;;;;;;6320309;28;19911;-66
2023/01/19 02:36:57;;;;;;;;;;;19.30;51.70;;;;;;6320948;28;19908;-66
2023/01/19 02:40:00;;;;;;;;;;;19.30;51.70;;;;;;6320890;28;19931;-66
2023/01/19 02:43:01;;;;;;;;;;;19.30;51.70;;;;;;6320595;28;19911;-66
2023/01/19 02:46:02;;;;;;;;;;;19.30;51.70;;;;;;6320647;28;20674;-66
2023/01/19 02:49:03;;;;;;;;;;;19.30;51.70;;;;;;6320487;28;19956;-66
2023/01/19 02:52:04;;;;;;;;;;;19.40;51.80;;;;;;6320724;28;19911;-66
2023/01/19 02:55:17;;;;;;;;;;;19.30;51.70;;;;;;6320084;28;19912;-66
2023/01/19 02:58:21;;;;;;;;;;;19.30;51.70;;;;;;6320495;28;19995;-66
2023/01/19 03:01:34;;;;;;;;;;;19.30;51.70;;;;;;6320236;28;20053;-66
2023/01/19 03:04:38;;;;;;;;;;;19.30;51.70;;;;;;6320012;28;19935;-66
2023/01/19 03:07:41;;;;;;;;;;;19.30;51.70;;;;;;6302155;28;19904;-66
2023/01/19 03:10:42;;;;;;;;;;;19.30;51.70;;;;;;6319413;28;19996;-66
2023/01/19 03:14:02;;;;;;;;;;;19.30;51.70;;;;;;6301594;28;19911;-66
2023/01/19 03:17:05;;;;;;;;;;;19.30;51.70;;;;;;6319403;28;19915;-66
2023/01/19 03:20:06;;;;;;;;;;;19.30;51.70;;;;;;6319256;28;19916;-66
2023/01/19 03:23:09;;;;;;;;;;;19.30;51.70;;;;;;6319214;28;19904;-66
2023/01/19 03:26:11;;;;;;;;;;;19.30;51.70;;;;;;6319187;28;19927;-66
2023/01/19 03:29:13;;;;;;;;;;;19.30;51.70;;;;;;6319964;28;19908;-66
2023/01/19 03:32:15;;;;;;;;;;;19.30;51.70;;;;;;6319485;28;19918;-66
2023/01/19 03:35:17;;;;;;;;;;;19.30;51.70;;;;;;6300739;28;20416;-66
2023/01/19 03:38:20;;;;;;;;;;;19.30;51.70;;;;;;6301392;28;20020;-66
2023/01/19 03:41:22;;;;;;;;;;;19.30;51.60;;;;;;6319494;28;19915;-66
2023/01/19 03:44:25;;;;;;;;;;;19.30;51.70;;;;;;6319008;28;19947;-66
2023/01/19 03:47:26;;;;;;;;;;;19.30;51.70;;;;;;6301019;28;20842;-66
2023/01/19 03:50:27;;;;;;;;;;;19.30;51.70;;;;;;6318752;28;19926;-66
2023/01/19 03:53:28;;;;;;;;;;;19.30;51.70;;;;;;6318979;28;19904;-66
2023/01/19 03:56:28;;;;;;;;;;;19.30;51.70;;;;;;6318769;28;19908;-66
2023/01/19 03:59:29;;;;;;;;;;;19.30;51.70;;;;;;6300919;28;19907;-66
2023/01/19 04:02:29;;;;;;;;;;;19.30;51.60;;;;;;6318879;28;19905;-66
2023/01/19 04:05:30;;;;;;;;;;;19.30;51.70;;;;;;6318502;28;19904;-66
2023/01/19 04:08:31;;;;;;;;;;;19.30;51.70;;;;;;6318457;28;19904;-66
2023/01/19 04:11:32;;;;;;;;;;;19.30;51.70;;;;;;6318504;28;20293;-66
2023/01/19 04:14:32;;;;;;;;;;;19.30;51.70;;;;;;6318288;28;20374;-66
2023/01/19 04:17:33;;;;;;;;;;;19.30;51.70;;;;;;6318971;28;19939;-66
2023/01/19 04:20:33;;;;;;;;;;;19.30;51.70;;;;;;6318501;28;19904;-66
2023/01/19 04:23:34;;;;;;;;;;;19.30;51.60;;;;;;6303517;28;19911;-66
2023/01/19 04:26:34;;;;;;;;;;;19.30;51.70;;;;;;6318027;28;19916;-66
2023/01/19 04:29:35;;;;;;;;;;;19.30;51.60;;;;;;6318387;28;19953;-66
2023/01/19 04:32:35;;;;;;;;;;;19.30;51.70;;;;;;6318286;28;19907;-66
2023/01/19 04:35:36;;;;;;;;;;;19.30;51.70;;;;;;6299753;28;19915;-66
2023/01/19 04:38:37;;;;;;;;;;;19.30;51.60;;;;;;6318196;28;19904;-66
2023/01/19 04:41:37;;;;;;;;;;;19.30;51.70;;;;;;6318165;28;19904;-66
2023/01/19 04:44:39;;;;;;;;;;;19.30;51.70;;;;;;6317858;28;20276;-66
2023/01/19 04:47:41;;;;;;;;;;;19.30;51.70;;;;;;6318305;28;19999;-66
2023/01/19 04:50:41;;;;;;;;;;;19.30;51.70;;;;;;6300942;28;19911;-67
2023/01/19 04:53:42;;;;;;;;;;;19.30;51.70;;;;;;6301386;28;19904;-67
2023/01/19 04:56:43;;;;;;;;;;;19.30;51.70;;;;;;6319013;28;20357;-67
2023/01/19 05:03:21;;;;;;;;;;;19.30;51.70;;;;;;6319407;28;19904;-67
2023/01/19 05:06:22;;;;;;;;;;;19.30;51.70;;;;;;6300850;28;19911;-66
2023/01/19 05:09:23;;;;;;;;;;;19.30;51.70;;;;;;6319160;28;19904;-67
2023/01/19 05:12:23;;;;;;;;;;;19.30;51.70;;;;;;6319137;28;19904;-67
2023/01/19 05:15:24;;;;;;;;;;;19.30;51.70;;;;;;6318877;28;19914;-67
2023/01/19 05:18:24;;;;;;;;;;;19.30;51.70;;;;;;6318844;28;19999;-67
2023/01/19 05:21:25;;;;;;;;;;;19.30;51.70;;;;;;6301226;28;19907;-67
2023/01/19 05:24:25;;;;;;;;;;;19.30;51.60;;;;;;6300792;28;19990;-67
2023/01/19 05:27:26;;;;;;;;;;;19.30;51.60;;;;;;6318833;28;19920;-66
2023/01/19 05:30:27;;;;;;;;;;;19.30;51.60;;;;;;6318519;28;19904;-67
2023/01/19 05:33:27;;;;;;;;;;;19.30;51.60;;;;;;6318888;28;20391;-67
2023/01/19 05:36:28;;;;;;;;;;;19.30;51.60;;;;;;6322730;28;19914;-67
2023/01/19 05:39:29;;;;;;;;;;;19.30;51.60;;;;;;6323592;28;20352;-67
2023/01/19 05:42:29;;;;;;;;;;;19.30;51.60;;;;;;6323730;28;19904;-67
2023/01/19 05:45:30;;;;;;;;;;;19.30;51.60;;;;;;6323386;28;20021;-67
2023/01/19 05:48:31;;;;;;;;;;;19.30;51.70;;;;;;6323167;28;20317;-67
2023/01/19 05:51:36;;;;;;;;;;;19.30;51.60;;;;;;6304756;28;19935;-67
2023/01/19 05:54:39;;;;;;;;;;;19.30;51.60;;;;;;6323175;28;20409;-67
2023/01/19 05:57:39;;;;;;;;;;;19.30;51.60;;;;;;6305155;28;19911;-67
2023/01/19 06:00:40;;;;;;;;;;;19.30;51.70;;;;;;6305632;28;19938;-67
2023/01/19 06:03:40;;;;;;;;;;;19.30;51.60;;;;;;6304744;28;19911;-67
2023/01/19 06:06:41;;;;;;;;;;;19.30;51.70;;;;;;6322800;28;19931;-67
2023/01/19 06:09:41;;;;;;;;;;;19.30;51.70;;;;;;6323043;28;19904;-67
2023/01/19 06:12:42;;;;;;;;;;;19.30;51.60;;;;;;6322854;28;19954;-67
2023/01/19 06:15:43;;;;;;;;;;;19.30;51.60;;;;;;6322443;28;19908;-67
2023/01/19 06:18:44;;;;;;;;;;;19.30;51.70;;;;;;6322675;28;19910;-66
2023/01/19 06:21:48;;;;;;;;;;;19.30;51.70;;;;;;6304422;28;19903;-67
2023/01/19 06:24:49;;;;;;;;;;;19.30;51.70;;;;;;6303974;28;19908;-66
2023/01/19 06:27:49;;;;;;;;;;;19.30;51.70;;;;;;6322043;28;20582;-67
2023/01/19 06:30:51;;;;;;;;;;;19.30;51.70;;;;;;6304297;28;19908;-67
2023/01/19 06:33:51;;;;;;;;;;;19.30;51.70;;;;;;6322432;28;19990;-67
2023/01/19 06:36:52;;;;;;;;;;;19.30;51.70;;;;;;6322045;28;19908;-67
2023/01/19 06:39:52;;;;;;;;;;;19.30;51.70;;;;;;6321709;28;19927;-67
2023/01/19 06:42:53;;;;;;;;;;;19.30;51.70;;;;;;6322293;28;19929;-66
2023/01/19 06:45:54;;;;;;;;;;;19.30;51.60;;;;;;6302539;28;19911;-67
2023/01/19 06:48:55;;;;;;;;;;;19.30;51.60;;;;;;6321842;28;20307;-67
2023/01/19 06:51:56;;;;;;;;;;;19.30;51.60;;;;;;6321448;28;19962;-66
2023/01/19 06:54:56;;;;;;;;;;;19.30;51.60;;;;;;6328480;28;19908;-65
2023/01/19 06:57:57;;;;;;;;;;;19.30;51.60;;;;;;6326043;28;19952;-65
2023/01/19 07:01:02;;;;;;;;;;;19.30;51.30;;;;;;6337056;28;19924;-65
2023/01/19 07:04:02;;;;;;;;;;;19.30;51.40;;;;;;6348535;28;19908;-66
2023/01/19 07:07:03;;;;;;;;;;;19.30;51.40;;;;;;6348383;28;20363;-65
2023/01/19 07:10:07;;;;;;;;;;;19.30;51.40;;;;;;6342852;28;19904;-66
2023/01/19 07:13:07;;;;;;;;;;;19.30;51.40;;;;;;6322956;28;19953;-65
2023/01/19 07:16:12;;;;;;;;;;;19.30;51.50;;;;;;6322420;28;19908;-65
2023/01/19 07:19:14;;;;;;;;;;;19.30;51.40;;;;;;6322572;28;20284;-66
2023/01/19 07:22:14;;;;;;;;;;;19.30;51.40;;;;;;6321217;28;19912;-65
2023/01/19 07:25:15;;;;;;;;;;;19.30;51.30;;;;;;6314915;28;19908;-65
2023/01/19 07:28:16;;;;;;;;;;;19.30;51.50;;;;;;6322353;28;19924;-66
2023/01/19 07:31:17;;;;;;;;;;;19.30;51.50;;;;;;6322962;28;19908;-64
2023/01/19 07:34:17;;;;;;;;;;;19.30;51.50;;;;;;6321856;28;19908;-67
2023/01/19 07:37:18;;;;;;;;;;;19.30;51.50;;;;;;6321453;28;19904;-66
2023/01/19 07:40:18;;;;;;;;;;;19.30;51.50;;;;;;6320279;28;20018;-67
2023/01/19 07:43:19;;;;;;;;;;;19.30;51.50;;;;;;6313467;28;19904;-66
2023/01/19 07:46:20;;;;;;;;;;;19.30;51.50;;;;;;6306827;28;20002;-67
2023/01/19 07:49:20;;;;;;;;;;;19.30;51.60;;;;;;6305847;28;19913;-67
2023/01/19 07:52:21;;;;;;;;;;;19.30;51.60;;;;;;6338725;28;19957;-67
2023/01/19 07:55:22;;;;;;;;;;;19.30;51.60;;;;;;6325676;28;20037;-66
2023/01/19 07:58:23;;;;;;;;;;;19.30;51.60;;;;;;6305760;28;20277;-67
2023/01/19 08:01:24;;;;;;;;;;;19.30;51.60;;;;;;6312937;28;19904;-67
2023/01/19 08:04:25;;;;;;;;;;;19.30;51.60;;;;;;6295039;28;20357;-67
2023/01/19 08:07:26;;;;;;;;;;;19.30;51.70;;;;;;6284749;28;19908;-66
2023/01/19 08:10:27;;;;;;;;;;;19.30;51.60;;;;;;6303162;28;20292;-67
2023/01/19 08:13:28;;;;;;;;;;;19.30;51.70;;;;;;6319972;28;19908;-67
2023/01/19 08:16:28;;;;;;;;;;;19.30;51.70;;;;;;6301006;28;19984;-67
2023/01/19 08:19:29;;;;;;;;;;;19.30;51.60;;;;;;6319229;28;20023;-67
2023/01/19 08:22:29;;;;;;;;;;;19.30;51.70;;;;;;6294623;28;19905;-68
2023/01/19 08:25:33;;;;;;;;;;;19.30;51.70;;;;;;6308799;28;19908;-67
2023/01/19 08:28:34;;;;;;;;;;;19.30;51.70;;;;;;6315633;28;20285;-67
2023/01/19 08:31:34;;;;;;;;;;;19.30;51.70;;;;;;6319507;28;19904;-67
2023/01/19 08:34:35;;;;;;;;;;;19.30;51.70;;;;;;6318912;28;19967;-66
2023/01/19 08:37:35;;;;;;;;;;;19.30;51.70;;;;;;6330803;28;19957;-67
2023/01/19 08:40:37;;;;;;;;;;;19.30;51.70;;;;;;6339225;28;19908;-67
2023/01/19 08:43:38;;;;;;;;;;;19.30;51.70;;;;;;6318493;28;20372;-66
2023/01/19 08:46:39;;;;;;;;;;;19.30;51.70;;;;;;6318973;28;19904;-67
2023/01/19 08:49:40;;;;;;;;;;;19.20;51.70;;;;;;6300603;28;19912;-66
2023/01/19 08:52:40;;;;;;;;;;;19.30;51.70;;;;;;6318206;28;19953;-66
2023/01/19 08:55:41;;;;;;;;;;;19.30;51.70;;;;;;6308143;28;19919;-67
2023/01/19 08:58:44;;;;;;;;;;;19.30;51.70;;;;;;6318159;28;19992;-67
2023/01/19 09:01:44;;;;;;;;;;;19.30;51.70;;;;;;6318725;28;19912;-67
2023/01/19 09:04:45;;;;;;;;;;;19.30;51.70;;;;;;6319568;28;19915;-68
2023/01/19 09:07:47;;;;;;;;;;;19.30;51.70;;;;;;6319332;28;19919;-67
2023/01/19 09:10:48;;;;;;;;;;;19.30;51.70;;;;;;6322948;28;19908;-68
2023/01/19 09:13:49;;;;;;;;;;;19.30;51.70;;;;;;6324230;28;19990;-67
2023/01/19 09:16:49;;;;;;;;;;;19.30;51.70;;;;;;6323701;28;19915;-68
2023/01/19 09:19:50;;;;;;;;;;;19.30;51.70;;;;;;6324248;28;19904;-68
2023/01/19 09:22:50;;;;;;;;;;;19.30;51.70;;;;;;6298001;28;19908;-69
2023/01/19 09:25:55;;;;;;;;;;;19.20;51.70;;;;;;6300117;28;19916;-68
2023/01/19 09:28:56;;;;;;;;;;;19.30;51.70;;;;;;6324253;28;19912;-67
2023/01/19 09:31:57;;;;;;;;;;;19.30;51.70;;;;;;6305402;28;19908;-67
2023/01/19 09:34:58;;;;;;;;;;;19.30;51.70;;;;;;6323547;28;19912;-68
2023/01/19 09:37:58;;;;;;;;;;;19.30;51.70;;;;;;6323816;28;20261;-67
2023/01/19 09:41:00;;;;;;;;;;;19.30;51.70;;;;;;6323008;28;19915;-67
2023/01/19 09:44:01;;;;;;;;;;;19.30;51.70;;;;;;6304944;28;19904;-68
2023/01/19 09:47:03;;;;;;;;;;;19.30;51.70;;;;;;6323133;28;19926;-67
2023/01/19 09:50:05;;;;;;;;;;;19.30;51.70;;;;;;6305933;28;19995;-67
2023/01/19 09:53:12;;;;;;;;;;;19.30;51.70;;;;;;6313347;28;20006;-68
2023/01/19 09:56:14;;;;;;;;;;;19.30;51.70;;;;;;6348619;28;19919;-68
2023/01/19 09:59:20;;;;;;;;;;;19.30;51.70;;;;;;6327059;28;19993;-67
2023/01/19 10:02:53;;;;;;;;;;;19.30;51.80;;;;;;6323574;28;19946;-67
2023/01/19 10:06:00;;;;;;;;;;;19.30;51.80;;;;;;6303261;28;19904;-68
2023/01/19 10:09:10;;;;;;;;;;;19.30;51.80;;;;;;6335257;28;19904;-68
2023/01/19 10:12:22;;;;;;;;;;;19.30;51.80;;;;;;6323203;28;19904;-67
2023/01/19 10:15:25;;;;;;;;;;;19.30;51.80;;;;;;6347318;28;19907;-67
2023/01/19 10:18:42;;;;;;;;;;;19.30;51.80;;;;;;6341053;28;19914;-67
2023/01/19 10:21:43;;;;;;;;;;;19.30;51.80;;;;;;6304530;28;19911;-68
2023/01/19 10:24:44;;;;;;;;;;;19.30;51.80;;;;;;6322881;28;19904;-67
2023/01/19 10:27:45;;;;;;;;;;;19.30;51.90;;;;;;6346837;28;19915;-68
2023/01/19 10:30:46;;;;;;;;;;;19.30;52.60;;;;;;6323072;28;19957;-68
2023/01/19 10:33:48;;;;;;;;;;;19.30;51.90;;;;;;6304446;28;19908;-67
2023/01/19 10:36:49;;;;;;;;;;;19.30;51.90;;;;;;6304750;28;19916;-67
2023/01/19 10:39:54;;;;;;;;;;;19.30;51.90;;;;;;6317496;28;19908;-68
2023/01/19 10:42:55;;;;;;;;;;;19.30;51.90;;;;;;6348120;28;19994;-68
2023/01/19 10:45:55;;;;;;;;;;;19.30;51.90;;;;;;6339656;28;19912;-68
2023/01/19 10:48:56;;;;;;;;;;;19.30;51.90;;;;;;6319913;28;19994;-68
2023/01/19 10:51:58;;;;;;;;;;;19.30;51.90;;;;;;6347013;28;19960;-69
2023/01/19 10:55:01;;;;;;;;;;;19.30;51.90;;;;;;6323750;28;19912;-68
2023/01/19 10:58:02;;;;;;;;;;;19.30;51.80;;;;;;6306273;28;20715;-68
2023/01/19 11:01:14;;;;;;;;;;;19.30;51.90;;;;;;6329161;28;19971;-69
2023/01/19 11:04:20;;;;;;;;;;;19.40;51.80;;;;;;6347192;28;20182;-69
2023/01/19 11:07:34;;;;;;;;;;;19.30;51.80;;;;;;6346874;28;20664;-69
2023/01/19 11:10:35;;;;;;;;;;;19.30;51.80;;;;;;6326575;28;19992;-69
2023/01/19 11:13:35;;;;;;;;;;;19.30;51.80;;;;;;6304948;28;19908;-69
2023/01/19 11:16:37;;;;;;;;;;;19.30;51.80;;;;;;6321550;28;19915;-69
2023/01/19 11:19:38;;;;;;;;;;;19.30;51.90;;;;;;6322340;28;19908;-69
2023/01/19 11:22:38;;;;;;;;;;;19.30;51.90;;;;;;6347050;28;19904;-69
2023/01/19 11:25:39;;;;;;;;;;;19.30;51.90;;;;;;6345918;28;19941;-69
2023/01/19 11:28:41;;;;;;;;;;;19.30;51.90;;;;;;6347055;28;19904;-69
2023/01/19 11:31:42;;;;;;;;;;;19.30;51.90;;;;;;6345585;28;19908;-70
2023/01/19 11:34:43;;;;;;;;;;;19.30;52.00;;;;;;6346188;28;19934;-69
2023/01/19 11:37:43;;;;;;;;;;;19.30;52.00;;;;;;6328481;28;19961;-69
2023/01/19 11:40:50;;;;;;;;;;;19.30;52.00;;;;;;6318277;28;19904;-69
2023/01/19 11:43:52;;;;;;;;;;;19.30;51.90;;;;;;6346555;28;19904;-69
2023/01/19 11:46:55;;;;;;;;;;;19.30;52.00;;;;;;6323032;28;19915;-69
2023/01/19 11:49:58;;;;;;;;;;;19.30;52.00;;;;;;6326143;28;19950;-69
2023/01/19 11:53:15;;;;;;;;;;;19.30;52.10;;;;;;6345581;28;20376;-70
2023/01/19 11:56:17;;;;;;;;;;;19.30;52.00;;;;;;6329640;28;19915;-70
2023/01/19 11:59:18;;;;;;;;;;;19.30;52.00;;;;;;6332586;28;19904;-70
2023/01/19 12:02:27;;;;;;;;;;;19.30;52.10;;;;;;6345001;28;20292;-70
2023/01/19 12:05:30;;;;;;;;;;;19.30;52.10;;;;;;6336864;28;19911;-69
2023/01/19 12:08:35;;;;;;;;;;;19.30;52.10;;;;;;6320630;28;20414;-69
2023/01/19 12:11:40;;;;;;;;;;;19.30;52.00;;;;;;6327258;28;19958;-69
2023/01/19 12:14:47;;;;;;;;;;;19.30;52.00;;;;;;6319854;28;20361;-69
2023/01/19 12:17:49;;;;;;;;;;;19.30;52.00;;;;;;6320779;28;19904;-69
2023/01/19 12:20:51;;;;;;;;;;;19.30;52.00;;;;;;6319820;28;19904;-70
2023/01/19 12:24:10;;;;;;;;;;;19.30;52.00;;;;;;6320270;28;20250;-69
2023/01/19 12:27:20;;;;;;;;;;;19.30;52.10;;;;;;6338429;28;19968;-69
2023/01/19 12:30:25;;;;;;;;;;;19.30;52.10;;;;;;6342229;28;20348;-69
2023/01/19 12:33:29;;;;;;;;;;;19.30;52.00;;;;;;6328610;28;19911;-68
2023/01/19 12:36:31;;;;;;;;;;;19.30;52.00;;;;;;6305075;28;19908;-68
2023/01/19 12:39:34;;;;;;;;;;;19.30;52.00;;;;;;6320669;28;20009;-68
2023/01/19 12:42:34;;;;;;;;;;;19.30;51.90;;;;;;6319956;28;19904;-68
2023/01/19 12:45:36;;;;;;;;;;;19.30;52.00;;;;;;6301419;28;19911;-70
2023/01/19 12:48:36;;;;;;;;;;;19.30;52.00;;;;;;6319281;28;19915;-68
2023/01/19 12:51:37;;;;;;;;;;;19.30;52.00;;;;;;6320135;28;19946;-67
2023/01/19 12:54:42;;;;;;;;;;;19.30;52.00;;;;;;6302023;28;19915;-67
2023/01/19 12:58:03;;;;;;;;;;;19.30;52.00;;;;;;6320416;28;20258;-70
2023/01/19 13:01:12;;;;;;;;;;;19.30;51.80;;;;;;6319869;28;19904;-68
2023/01/19 13:04:31;;;;;;;;;;;19.30;51.90;;;;;;6301539;28;19908;-68
2023/01/19 13:07:52;;;;;;;;;;;19.30;52.00;;;;;;6319309;28;20724;-68
2023/01/19 13:10:59;;;;;;;;;;;19.30;51.90;;;;;;6316958;28;20291;-68
2023/01/19 13:14:00;;;;;;;;;;;19.30;51.90;;;;;;6319325;28;19904;-68
2023/01/19 13:17:01;;;;;;;;;;;19.30;51.90;;;;;;6292497;28;19931;-68
2023/01/19 13:20:18;;;;;;;;;;;19.30;52.10;;;;;;6297838;28;19904;-68
2023/01/19 13:23:23;;;;;;;;;;;19.30;52.00;;;;;;6319482;28;20392;-68
2023/01/19 13:26:26;;;;;;;;;;;19.30;52.00;;;;;;6300181;28;19920;-68
2023/01/19 13:29:34;;;;;;;;;;;19.30;51.90;;;;;;6317895;28;19964;-68
2023/01/19 13:32:35;;;;;;;;;;;19.30;52.00;;;;;;6317971;28;19904;-68
2023/01/19 13:35:36;;;;;;;;;;;19.30;51.80;;;;;;6316573;28;19919;-68
2023/01/19 13:38:40;;;;;;;;;;;19.30;51.90;;;;;;6299981;28;20002;-68
2023/01/19 13:41:41;;;;;;;;;;;19.30;51.90;;;;;;6318199;28;19904;-68
2023/01/19 13:44:52;;;;;;;;;;;19.30;51.90;;;;;;6317852;28;19904;-68
2023/01/19 13:47:53;;;;;;;;;;;19.30;51.90;;;;;;6299977;28;19915;-68
2023/01/19 13:50:55;;;;;;;;;;;19.30;51.70;;;;;;6317276;28;19904;-67
2023/01/19 13:53:57;;;;;;;;;;;19.30;52.60;;;;;;6318188;28;19919;-67
2023/01/19 13:56:58;;;;;;;;;;;19.30;51.90;;;;;;6302886;28;19915;-67
2023/01/19 14:00:11;;;;;;;;;;;19.30;51.70;;;;;;6322137;28;19954;-67
2023/01/19 14:03:16;;;;;;;;;;;19.30;51.80;;;;;;6322682;28;19954;-67
2023/01/19 14:06:21;;;;;;;;;;;19.30;51.80;;;;;;6321937;28;19908;-66
2023/01/19 14:09:22;;;;;;;;;;;19.30;51.80;;;;;;6304427;28;20038;-66
2023/01/19 14:12:24;;;;;;;;;;;19.30;51.60;;;;;;6320911;28;19904;-67
2023/01/19 14:15:25;;;;;;;;;;;19.30;51.80;;;;;;6322197;28;19911;-66
2023/01/19 14:18:29;;;;;;;;;;;19.30;51.70;;;;;;6321692;28;19958;-67
2023/01/19 14:21:37;;;;;;;;;;;19.30;51.80;;;;;;6321862;28;19954;-67
2023/01/19 14:24:38;;;;;;;;;;;19.30;51.70;;;;;;6321061;28;20297;-67
2023/01/19 14:27:38;;;;;;;;;;;19.30;51.70;;;;;;5747861;28;15089114;-67
2023/01/19 14:30:51;;;;;;;;;;;19.30;51.70;;;;;;6323181;28;19918;-67
2023/01/19 14:33:53;;;;;;;;;;;19.30;51.70;;;;;;6323277;28;19904;-67
2023/01/19 14:36:53;;;;;;;;;;;19.30;51.80;;;;;;6322949;28;19947;-67
2023/01/19 14:39:54;;;;;;;;;;;19.30;51.70;;;;;;6322933;28;19972;-67
2023/01/19 14:43:06;;;;;;;;;;;19.30;51.70;;;;;;6322961;28;19939;-67
2023/01/19 14:46:06;;;;;;;;;;;19.30;51.70;;;;;;6322382;28;19912;-68
2023/01/19 14:49:15;;;;;;;;;;;19.30;51.80;;;;;;6304912;28;19942;-67
2023/01/19 14:52:20;;;;;;;;;;;19.30;51.70;;;;;;6322760;28;20399;-67
2023/01/19 14:55:23;;;;;;;;;;;19.30;51.80;;;;;;6322681;28;19908;-67
2023/01/19 14:58:26;;;;;;;;;;;19.30;51.80;;;;;;6322133;28;19904;-67
2023/01/19 15:01:27;;;;;;;;;;;19.30;51.80;;;;;;6322541;28;20356;-67
2023/01/19 15:04:28;;;;;;;;;;;19.30;51.80;;;;;;6322530;28;20016;-67
2023/01/19 15:07:29;;;;;;;;;;;19.30;51.80;;;;;;6321508;28;20339;-67
2023/01/19 15:10:30;;;;;;;;;;;19.30;51.80;;;;;;6303896;28;19915;-67
2023/01/19 15:13:31;;;;;;;;;;;19.30;51.80;;;;;;6295584;28;20663;-67
2023/01/19 15:16:33;;;;;;;;;;;19.30;51.80;;;;;;6296839;28;19962;-67
2023/01/19 15:19:33;;;;;;;;;;;19.30;51.80;;;;;;6303953;28;19944;-67
2023/01/19 15:22:34;;;;;;;;;;;19.30;51.80;;;;;;6322095;28;19914;-67
2023/01/19 15:25:34;;;;;;;;;;;19.30;51.80;;;;;;6321711;28;19914;-67
2023/01/19 15:28:35;;;;;;;;;;;19.30;51.90;;;;;;6322052;28;19922;-67
2023/01/19 15:31:36;;;;;;;;;;;19.30;51.80;;;;;;6303263;28;19919;-67
2023/01/19 15:34:36;;;;;;;;;;;19.30;51.80;;;;;;6303549;28;19912;-67
2023/01/19 15:37:37;;;;;;;;;;;19.30;51.80;;;;;;6303124;28;19958;-67
2023/01/19 15:40:38;;;;;;;;;;;19.30;51.80;;;;;;6321347;28;19950;-67
2023/01/19 15:43:39;;;;;;;;;;;19.30;51.90;;;;;;6320954;28;19999;-67
2023/01/19 15:46:40;;;;;;;;;;;19.30;51.90;;;;;;6303204;28;20246;-67
2023/01/19 15:49:40;;;;;;;;;;;19.30;51.80;;;;;;6321170;28;19904;-67
2023/01/19 15:52:42;;;;;;;;;;;19.30;51.80;;;;;;6321068;28;20016;-67
2023/01/19 15:55:43;;;;;;;;;;;19.30;51.80;;;;;;6302756;28;19937;-67
2023/01/19 15:58:43;;;;;;;;;;;19.30;51.80;;;;;;6321051;28;20551;-67
2023/01/19 16:01:44;;;;;;;;;;;19.30;51.80;;;;;;6302716;28;19911;-67
2023/01/19 16:04:48;;;;;;;;;;;19.30;51.80;;;;;;6321063;28;19932;-67
2023/01/19 16:07:48;;;;;;;;;;;19.30;51.80;;;;;;6321002;28;19908;-67
2023/01/19 16:10:49;;;;;;;;;;;19.30;51.80;;;;;;6302557;28;19912;-67
2023/01/19 16:13:49;;;;;;;;;;;19.30;51.80;;;;;;6320990;28;19911;-67
2023/01/19 16:16:50;;;;;;;;;;;19.30;51.80;;;;;;6320785;28;19908;-67
2023/01/19 16:19:50;;;;;;;;;;;19.30;51.80;;;;;;6320747;28;19908;-67
2023/01/19 16:22:52;;;;;;;;;;;19.30;52.50;;;;;;6320612;28;19915;-67
2023/01/19 16:25:56;;;;;;;;;;;19.30;51.80;;;;;;6320031;28;19919;-65
2023/01/19 16:28:58;;;;;;;;;;;19.30;51.80;;;;;;6320668;28;19930;-68
2023/01/19 16:31:59;;;;;;;;;;;19.30;51.80;;;;;;6302009;28;19908;-64
2023/01/19 16:35:00;;;;;;;;;;;19.30;51.20;;;;;;6319944;28;20319;-66
2023/01/19 16:38:01;;;;;;;;;;;19.20;51.60;;;;;;6319934;28;20350;-65
2023/01/19 16:41:01;;;;;;;;;;;19.10;50.50;;;;;;6320272;28;19915;-68
2023/01/19 16:44:03;;;;;;;;;;;19.10;50.10;;;;;;6319640;28;19970;-68
2023/01/19 16:47:03;;;;;;;;;;;19.20;48.40;;;;;;6301449;28;19911;-69
2023/01/19 16:50:04;;;;;;;;;;;19.20;48.00;;;;;;6319554;28;19904;-69
2023/01/19 16:53:05;;;;;;;;;;;19.10;46.70;;;;;;6301022;28;19953;-68
2023/01/19 16:56:06;;;;;;;;;;;19.20;47.60;;;;;;6320366;28;19967;-69
2023/01/19 16:59:09;;;;;;;;;;;19.20;48.10;;;;;;6304004;28;20430;-70
2023/01/19 17:02:41;;;;;;;;;;;19.20;48.40;;;;;;6302341;28;19915;-69
2023/01/19 17:09:57;;;;;;;;;;;19.20;48.90;;;;;;6315298;28;19911;-69
2023/01/19 17:12:59;;;;;;;;;;;19.20;49.10;;;;;;6321061;28;20559;-71
2023/01/19 17:16:01;;;;;;;;;;;19.20;49.20;;;;;;6318944;28;20010;-71
2023/01/19 17:19:03;;;;;;;;;;;19.20;49.20;;;;;;6319245;28;19911;-71
2023/01/19 17:22:04;;;;;;;;;;;19.20;49.20;;;;;;6299902;28;19904;-71
2023/01/19 17:25:05;;;;;;;;;;;19.20;49.40;;;;;;6309538;28;19904;-70
2023/01/19 17:28:06;;;;;;;;;;;19.20;49.50;;;;;;6343803;28;20003;-71
2023/01/19 17:31:09;;;;;;;;;;;19.20;49.50;;;;;;6327211;28;19908;-71
2023/01/19 17:34:10;;;;;;;;;;;19.20;49.60;;;;;;6326630;28;20361;-71
2023/01/19 17:37:11;;;;;;;;;;;19.20;49.60;;;;;;6322688;28;19915;-71
2023/01/19 17:40:11;;;;;;;;;;;19.20;49.70;;;;;;6322193;28;19957;-71
2023/01/19 17:43:12;;;;;;;;;;;19.20;49.70;;;;;;6304671;28;19911;-71
2023/01/19 17:46:12;;;;;;;;;;;19.20;49.70;;;;;;6322557;28;19904;-71
2023/01/19 17:49:13;;;;;;;;;;;19.20;49.80;;;;;;6305319;28;19904;-71
2023/01/19 17:52:13;;;;;;;;;;;19.20;49.80;;;;;;6322705;28;19908;-71
2023/01/19 17:55:14;;;;;;;;;;;19.20;49.90;;;;;;6304004;28;19942;-72
2023/01/19 17:58:15;;;;;;;;;;;19.20;49.90;;;;;;6322071;28;19904;-71